Terminal Aerodrome Forecast
Issued by NWS

Home | Current Version | Previous Version | Graphics & Text | Print | Product List | Glossary On
Versions: 1 2 3 4 5 6 7 8 9 10 11 12 13 14 15
601
FTUS43 KBIS 211128
TAFJMS
TAF
KJMS 211128Z 2112/2212 33004KT P6SM VCSH BKN150
     FM211500 35007KT P6SM SCT150
     FM220200 VRB03KT P6SM FEW250=

USA.gov is the U.S. government's official web portal to all federal, state and local government web resources and services.